Time;durP1;ratioP1;P1;durP2;ratioP2;P2;SDS_P1;SDS_P2;PMS_P1;PMS_P2;Temp;Humidity;BMP_temperature;BMP_pressure;BME280_temperature;BME280_humidity;BME280_pressure;Samples;Min_cycle;Max_cycle;Signal;HPM_P1;HPM_P2
2022/04/29 00:00:22;;;;;;;;;;;;;;;;;;5119579;27;19949;-78
2022/04/29 00:02:51;;;;;;;;;;;;;;;;;;5137569;27;19912;-78
2022/04/29 00:05:17;;;;;;;;;;;;;;;;;;5119598;27;20331;-78
2022/04/29 00:07:45;;;;;;;;;;;;;;;;;;5138100;27;19918;-78
2022/04/29 00:10:12;;;;;;;;;;;;;;;;;;5119592;27;19915;-79
2022/04/29 00:12:38;;;;;;;;;;;;;;;;;;5119866;27;19911;-78
2022/04/29 00:15:03;;;;;;;;;;;;;;;;;;5137493;27;20256;-78
2022/04/29 00:17:28;;;;;;;;;;;;;;;;;;5136716;27;20001;-78
2022/04/29 00:19:53;;;;;;;;;;;;;;;;;;5119135;27;19950;-77
2022/04/29 00:22:19;;;;;;;;;;;;;;;;;;5119039;27;20263;-78
2022/04/29 00:24:46;;;;;;;;;;;;;;;;;;5101718;27;20271;-78
2022/04/29 00:27:11;;;;;;;;;;;;;;;;;;5118791;27;19912;-78
2022/04/29 00:29:37;;;;;;;;;;;;;;;;;;5137781;27;19923;-77
2022/04/29 00:32:02;;;;;;;;;;;;;;;;;;5136997;27;20022;-78
2022/04/29 00:34:27;;;;;;;;;;;;;;;;;;5101800;27;19990;-78
2022/04/29 00:36:52;;;;;;;;;;;;;;;;;;5118956;27;20282;-78
2022/04/29 00:39:18;;;;;;;;;;;;;;;;;;5137319;27;20006;-78
2022/04/29 00:41:44;;;;;;;;;;;;;;;;;;5118694;27;19939;-78
2022/04/29 00:44:10;;;;;;;;;;;;;;;;;;5136633;27;19912;-78
2022/04/29 00:46:38;;;;;;;;;;;;;;;;;;5137205;27;19925;-78
2022/04/29 00:49:04;;;;;;;;;;;;;;;;;;5119735;27;19968;-77
2022/04/29 00:51:29;;;;;;;;;;;;;;;;;;5118672;27;19919;-78
2022/04/29 00:53:55;;;;;;;;;;;;;;;;;;5118581;27;20026;-79
2022/04/29 00:56:21;;;;;;;;;;;;;;;;;;5101933;27;19921;-78
2022/04/29 00:58:46;;;;;;;;;;;;;;;;;;5136541;27;19998;-78
2022/04/29 01:01:14;;;;;;;;;;;;;;;;;;5118727;27;19911;-78
2022/04/29 01:03:39;;;;;;;;;;;;;;;;;;5118741;27;19911;-78
2022/04/29 01:06:05;;;;;;;;;;;;;;;;;;5118416;27;19920;-77
2022/04/29 01:08:30;;;;;;;;;;;;;;;;;;5136698;27;19912;-77
2022/04/29 01:10:56;;;;;;;;;;;;;;;;;;5136442;27;19961;-78
2022/04/29 01:13:21;;;;;;;;;;;;;;;;;;5101720;27;20271;-77
2022/04/29 01:15:50;;;;;;;;;;;;;;;;;;5136385;27;19911;-78
2022/04/29 01:18:17;;;;;;;;;;;;;;;;;;5119719;28;19911;-77
2022/04/29 01:20:42;;;;;;;;;;;;;;;;;;5101399;28;20014;-78
2022/04/29 01:23:08;;;;;;;;;;;;;;;;;;5136406;27;20342;-78
2022/04/29 01:25:33;;;;;;;;;;;;;;;;;;5101218;28;20340;-78
2022/04/29 01:28:01;;;;;;;;;;;;;;;;;;5141401;27;19937;-77
2022/04/29 01:30:28;;;;;;;;;;;;;;;;;;5107764;27;19916;-78
2022/04/29 01:32:54;;;;;;;;;;;;;;;;;;5143116;27;20363;-77
2022/04/29 01:35:19;;;;;;;;;;;;;;;;;;5108062;27;19911;-79
2022/04/29 01:37:44;;;;;;;;;;;;;;;;;;5143118;27;19919;-77
2022/04/29 01:40:12;;;;;;;;;;;;;;;;;;5143100;27;19927;-77
2022/04/29 01:42:38;;;;;;;;;;;;;;;;;;5142695;27;19911;-77
2022/04/29 01:45:03;;;;;;;;;;;;;;;;;;5124612;27;19920;-78
2022/04/29 01:47:28;;;;;;;;;;;;;;;;;;5142664;27;19934;-77
2022/04/29 01:49:59;;;;;;;;;;;;;;;;;;5142922;27;20011;-77
2022/04/29 01:52:24;;;;;;;;;;;;;;;;;;5125828;27;19919;-77
2022/04/29 01:54:50;;;;;;;;;;;;;;;;;;5142736;27;20012;-78
2022/04/29 01:57:17;;;;;;;;;;;;;;;;;;5124807;27;20304;-78
2022/04/29 01:59:42;;;;;;;;;;;;;;;;;;5124557;27;19911;-78
2022/04/29 02:02:08;;;;;;;;;;;;;;;;;;5142735;27;20006;-77
2022/04/29 02:04:34;;;;;;;;;;;;;;;;;;5142338;27;20026;-77
2022/04/29 02:07:02;;;;;;;;;;;;;;;;;;5108551;27;20284;-77
2022/04/29 02:09:27;;;;;;;;;;;;;;;;;;5124897;27;19929;-78
2022/04/29 02:12:11;;;;;;;;;;;;;;;;;;5124519;27;20364;-78
2022/04/29 02:14:39;;;;;;;;;;;;;;;;;;5142812;27;19929;-79
2022/04/29 02:17:06;;;;;;;;;;;;;;;;;;5142598;27;19911;-78
2022/04/29 02:19:31;;;;;;;;;;;;;;;;;;5124787;27;19964;-78
2022/04/29 02:21:57;;;;;;;;;;;;;;;;;;5124497;27;20271;-78
2022/04/29 02:24:25;;;;;;;;;;;;;;;;;;5124512;27;19911;-77
2022/04/29 02:26:52;;;;;;;;;;;;;;;;;;5124507;27;20011;-76
2022/04/29 02:29:17;;;;;;;;;;;;;;;;;;5142427;27;19922;-77
2022/04/29 02:31:45;;;;;;;;;;;;;;;;;;5124800;27;19911;-78
2022/04/29 02:34:10;;;;;;;;;;;;;;;;;;5142375;27;19922;-78
2022/04/29 02:36:36;;;;;;;;;;;;;;;;;;5124360;27;19911;-78
2022/04/29 02:39:03;;;;;;;;;;;;;;;;;;5140165;27;19912;-81
2022/04/29 02:41:28;;;;;;;;;;;;;;;;;;5139416;27;19957;-77
2022/04/29 02:43:56;;;;;;;;;;;;;;;;;;5121374;27;20252;-78
2022/04/29 02:46:21;;;;;;;;;;;;;;;;;;5139012;27;19919;-77
2022/04/29 02:48:48;;;;;;;;;;;;;;;;;;5139029;27;19911;-78
2022/04/29 02:51:15;;;;;;;;;;;;;;;;;;5139231;27;20030;-78
2022/04/29 02:53:40;;;;;;;;;;;;;;;;;;5121659;27;19965;-78
2022/04/29 02:56:06;;;;;;;;;;;;;;;;;;5138899;27;20216;-78
2022/04/29 02:58:36;;;;;;;;;;;;;;;;;;5139135;27;20378;-77
2022/04/29 03:01:01;;;;;;;;;;;;;;;;;;5138958;27;19911;-78
2022/04/29 03:03:27;;;;;;;;;;;;;;;;;;5120699;27;19964;-79
2022/04/29 03:05:52;;;;;;;;;;;;;;;;;;5138814;27;20035;-78
2022/04/29 03:08:20;;;;;;;;;;;;;;;;;;5139030;27;19912;-79
2022/04/29 03:10:47;;;;;;;;;;;;;;;;;;5139433;27;19962;-78
2022/04/29 03:13:13;;;;;;;;;;;;;;;;;;5139300;27;19912;-77
2022/04/29 03:15:41;;;;;;;;;;;;;;;;;;5121681;27;20372;-79
2022/04/29 03:18:18;;;;;;;;;;;;;;;;;;5121157;27;20371;-80
2022/04/29 03:20:46;;;;;;;;;;;;;;;;;;5138688;27;19915;-79
2022/04/29 03:23:11;;;;;;;;;;;;;;;;;;5138190;27;19922;-78
2022/04/29 03:25:45;;;;;;;;;;;;;;;;;;5138188;27;19915;-78
2022/04/29 03:28:12;;;;;;;;;;;;;;;;;;5138404;27;19923;-77
2022/04/29 03:30:37;;;;;;;;;;;;;;;;;;5120498;27;19951;-77
2022/04/29 03:33:03;;;;;;;;;;;;;;;;;;5137979;27;19968;-77
2022/04/29 03:35:31;;;;;;;;;;;;;;;;;;5138272;27;19911;-77
2022/04/29 03:37:56;;;;;;;;;;;;;;;;;;5137971;27;19968;-76
2022/04/29 03:40:22;;;;;;;;;;;;;;;;;;5120456;27;19911;-78
2022/04/29 03:42:52;;;;;;;;;;;;;;;;;;5137926;27;19912;-79
2022/04/29 03:45:17;;;;;;;;;;;;;;;;;;5137719;27;20332;-77
2022/04/29 03:47:43;;;;;;;;;;;;;;;;;;5137984;27;19922;-77
2022/04/29 03:50:08;;;;;;;;;;;;;;;;;;5137122;27;20007;-79
2022/04/29 03:52:34;;;;;;;;;;;;;;;;;;5137242;27;20352;-78
2022/04/29 03:54:59;;;;;;;;;;;;;;;;;;5137946;27;20351;-78
2022/04/29 03:57:29;;;;;;;;;;;;;;;;;;5137819;27;19926;-78
2022/04/29 03:59:54;;;;;;;;;;;;;;;;;;5119326;27;19922;-78
2022/04/29 04:02:20;;;;;;;;;;;;;;;;;;5137505;27;19912;-78
2022/04/29 04:04:46;;;;;;;;;;;;;;;;;;5137313;27;19972;-78
2022/04/29 04:07:13;;;;;;;;;;;;;;;;;;5137735;27;19998;-79
2022/04/29 04:09:39;;;;;;;;;;;;;;;;;;5137674;27;19912;-78
2022/04/29 04:12:05;;;;;;;;;;;;;;;;;;5137631;27;20006;-78
2022/04/29 04:14:30;;;;;;;;;;;;;;;;;;5137277;27;19912;-79
2022/04/29 04:16:55;;;;;;;;;;;;;;;;;;5102200;27;19916;-78
2022/04/29 04:19:20;;;;;;;;;;;;;;;;;;5137089;27;19915;-79
2022/04/29 04:21:45;;;;;;;;;;;;;;;;;;5119097;27;19922;-79
2022/04/29 04:24:11;;;;;;;;;;;;;;;;;;5137319;27;19911;-78
2022/04/29 04:26:36;;;;;;;;;;;;;;;;;;5137046;27;19920;-79
2022/04/29 04:29:02;;;;;;;;;;;;;;;;;;5119154;27;19922;-79
2022/04/29 04:31:27;;;;;;;;;;;;;;;;;;5119036;27;19941;-79
2022/04/29 04:33:52;;;;;;;;;;;;;;;;;;5136873;27;20348;-79
2022/04/29 04:36:20;;;;;;;;;;;;;;;;;;5136848;27;19911;-78
2022/04/29 04:38:47;;;;;;;;;;;;;;;;;;5118944;27;19915;-78
2022/04/29 04:41:16;;;;;;;;;;;;;;;;;;5119432;27;19912;-79
2022/04/29 04:43:41;;;;;;;;;;;;;;;;;;5137111;27;19911;-79
2022/04/29 04:46:06;;;;;;;;;;;;;;;;;;5136382;27;19930;-78
2022/04/29 04:48:32;;;;;;;;;;;;;;;;;;5118950;27;20011;-79
2022/04/29 04:51:03;;;;;;;;;;;;;;;;;;5136608;27;19911;-77
2022/04/29 04:53:29;;;;;;;;;;;;;;;;;;5102250;27;19911;-77
2022/04/29 04:55:54;;;;;;;;;;;;;;;;;;5136903;27;19918;-78
2022/04/29 04:58:19;;;;;;;;;;;;;;;;;;5136431;27;20030;-78
2022/04/29 05:00:44;;;;;;;;;;;;;;;;;;5136820;27;19915;-78
2022/04/29 05:03:09;;;;;;;;;;;;;;;;;;5136500;27;19911;-78
2022/04/29 05:05:35;;;;;;;;;;;;;;;;;;5118429;28;19919;-77
2022/04/29 05:08:02;;;;;;;;;;;;;;;;;;5119142;27;19911;-78
2022/04/29 05:10:27;;;;;;;;;;;;;;;;;;5136583;27;19911;-78
2022/04/29 05:12:53;;;;;;;;;;;;;;;;;;5118525;27;19911;-78
2022/04/29 05:15:20;;;;;;;;;;;;;;;;;;5136613;27;19994;-79
2022/04/29 05:17:48;;;;;;;;;;;;;;;;;;5136366;27;19916;-79
2022/04/29 05:20:16;;;;;;;;;;;;;;;;;;5136187;27;19912;-78
2022/04/29 05:22:41;;;;;;;;;;;;;;;;;;5118860;28;20214;-78
2022/04/29 05:25:07;;;;;;;;;;;;;;;;;;5100933;28;19927;-78
2022/04/29 05:27:37;;;;;;;;;;;;;;;;;;5118102;28;20365;-77
2022/04/29 05:30:02;;;;;;;;;;;;;;;;;;5136343;28;19918;-77
2022/04/29 05:32:29;;;;;;;;;;;;;;;;;;5135994;28;20006;-80
2022/04/29 05:34:57;;;;;;;;;;;;;;;;;;5118077;28;19911;-78
2022/04/29 05:37:22;;;;;;;;;;;;;;;;;;5118193;28;19922;-77
2022/04/29 05:42:33;;;;;;;;;;;;;;;;;;5136092;28;20247;-79
2022/04/29 05:45:00;;;;;;;;;;;;;;;;;;5118127;28;19930;-78
2022/04/29 05:47:25;;;;;;;;;;;;;;;;;;5118346;28;20395;-77
2022/04/29 05:49:50;;;;;;;;;;;;;;;;;;5135914;28;19950;-78
2022/04/29 05:52:18;;;;;;;;;;;;;;;;;;5118536;28;19911;-78
2022/04/29 05:54:45;;;;;;;;;;;;;;;;;;5135995;28;19912;-77
2022/04/29 05:57:11;;;;;;;;;;;;;;;;;;5136180;28;19911;-78
2022/04/29 05:59:37;;;;;;;;;;;;;;;;;;5135789;28;20053;-78
2022/04/29 06:02:04;;;;;;;;;;;;;;;;;;5136126;28;19911;-78
2022/04/29 06:04:30;;;;;;;;;;;;;;;;;;5135781;28;20002;-79
2022/04/29 06:06:55;;;;;;;;;;;;;;;;;;5136223;28;19994;-79
2022/04/29 06:09:22;;;;;;;;;;;;;;;;;;5135854;28;19911;-78
2022/04/29 06:11:47;;;;;;;;;;;;;;;;;;5135735;28;19911;-78
2022/04/29 06:14:13;;;;;;;;;;;;;;;;;;5137167;27;20007;-79
2022/04/29 06:16:40;;;;;;;;;;;;;;;;;;5121508;27;19919;-78
2022/04/29 06:19:05;;;;;;;;;;;;;;;;;;5121375;27;20387;-79
2022/04/29 06:21:31;;;;;;;;;;;;;;;;;;5121789;27;19962;-79
2022/04/29 06:23:56;;;;;;;;;;;;;;;;;;5139466;27;19911;-78
2022/04/29 06:26:24;;;;;;;;;;;;;;;;;;5139042;27;19916;-79
2022/04/29 06:28:49;;;;;;;;;;;;;;;;;;5139388;27;19912;-78
2022/04/29 06:31:16;;;;;;;;;;;;;;;;;;5139802;27;19984;-78
2022/04/29 06:33:42;;;;;;;;;;;;;;;;;;5139592;27;19927;-78
2022/04/29 06:36:07;;;;;;;;;;;;;;;;;;5139345;27;19912;-78
2022/04/29 06:38:32;;;;;;;;;;;;;;;;;;5139364;27;20218;-78
2022/04/29 06:41:00;;;;;;;;;;;;;;;;;;5121192;27;19954;-79
2022/04/29 06:43:25;;;;;;;;;;;;;;;;;;5139261;27;20378;-79
2022/04/29 06:45:50;;;;;;;;;;;;;;;;;;5138729;27;20010;-76
2022/04/29 06:48:16;;;;;;;;;;;;;;;;;;5120791;27;19915;-77
2022/04/29 06:50:41;;;;;;;;;;;;;;;;;;5138803;27;19918;-77
2022/04/29 06:53:09;;;;;;;;;;;;;;;;;;5139134;27;19911;-76
2022/04/29 06:55:40;;;;;;;;;;;;;;;;;;5121244;27;19911;-77
2022/04/29 06:58:09;;;;;;;;;;;;;;;;;;5121116;27;19961;-78
2022/04/29 07:00:34;;;;;;;;;;;;;;;;;;5104373;27;20338;-79
2022/04/29 07:03:03;;;;;;;;;;;;;;;;;;5120914;27;19999;-79
2022/04/29 07:05:33;;;;;;;;;;;;;;;;;;5138544;27;19944;-79
2022/04/29 07:07:59;;;;;;;;;;;;;;;;;;5138594;27;19919;-78
2022/04/29 07:10:29;;;;;;;;;;;;;;;;;;5138886;27;19911;-79
2022/04/29 07:12:57;;;;;;;;;;;;;;;;;;5121446;27;19912;-79
2022/04/29 07:15:22;;;;;;;;;;;;;;;;;;5138478;27;19911;-77
2022/04/29 07:17:47;;;;;;;;;;;;;;;;;;5120332;27;19934;-76
2022/04/29 07:20:13;;;;;;;;;;;;;;;;;;5138721;27;19990;-77
2022/04/29 07:22:38;;;;;;;;;;;;;;;;;;5120433;27;20000;-76
2022/04/29 07:25:05;;;;;;;;;;;;;;;;;;5119892;27;20006;-77
2022/04/29 07:27:32;;;;;;;;;;;;;;;;;;5120132;27;19911;-77
2022/04/29 07:30:04;;;;;;;;;;;;;;;;;;5120103;27;20259;-76
2022/04/29 07:32:29;;;;;;;;;;;;;;;;;;5138593;27;20002;-76
2022/04/29 07:43:25;;;;;;;;;;;;;;;;;;5138168;27;19926;-76
2022/04/29 07:45:51;;;;;;;;;;;;;;;;;;5137719;27;20344;-77
2022/04/29 07:48:16;;;;;;;;;;;;;;;;;;5138187;27;20312;-77
2022/04/29 07:50:42;;;;;;;;;;;;;;;;;;5119634;27;20000;-77
2022/04/29 07:53:09;;;;;;;;;;;;;;;;;;5119729;27;20286;-77
2022/04/29 07:55:35;;;;;;;;;;;;;;;;;;5137576;27;19923;-76
2022/04/29 07:58:03;;;;;;;;;;;;;;;;;;5138009;27;20239;-77
2022/04/29 08:00:31;;;;;;;;;;;;;;;;;;5137393;27;20267;-77
2022/04/29 09:17:25;;;;;;;;;;;;;;;;;;5647842;22;19937;-76
2022/04/29 09:19:50;;;;;;;;;;;;;;;;;;4992094;28;19913;-76
2022/04/29 09:22:20;;;;;;;;;;;;;;;;;;5014901;28;19925;-76
2022/04/29 09:24:58;;;;;;;;;;;;;;;;;;5015075;28;19936;-76
2022/04/29 09:27:23;;;;;;;;;;;;;;;;;;5015186;28;19933;-76
2022/04/29 09:29:51;;;;;;;;;;;;;;;;;;4998037;28;20020;-75
2022/04/29 09:32:16;;;;;;;;;;;;;;;;;;4997887;28;19914;-77
2022/04/29 09:34:53;;;;;;;;;;;;;;;;;;5015143;28;19923;-77
2022/04/29 09:37:18;;;;;;;;;;;;;;;;;;5015376;28;19918;-77
2022/04/29 09:39:52;;;;;;;;;;;;;;;;;;5015030;28;19914;-78
2022/04/29 09:42:18;;;;;;;;;;;;;;;;;;5015064;28;19968;-76
2022/04/29 09:44:43;;;;;;;;;;;;;;;;;;4998715;28;19917;-77
2022/04/29 09:47:08;;;;;;;;;;;;;;;;;;5014880;28;20013;-77
2022/04/29 09:49:34;;;;;;;;;;;;;;;;;;5018816;28;19987;-77
2022/04/29 09:51:59;;;;;;;;;;;;;;;;;;5001884;28;19921;-78
2022/04/29 09:54:25;;;;;;;;;;;;;;;;;;4985369;28;19913;-77
2022/04/29 09:57:02;;;;;;;;;;;;;;;;;;5018892;28;19940;-77
2022/04/29 09:59:31;;;;;;;;;;;;;;;;;;5018856;28;20323;-76
2022/04/29 10:01:57;;;;;;;;;;;;;;;;;;5001422;28;20277;-76
2022/04/29 10:04:22;;;;;;;;;;;;;;;;;;5001508;28;20012;-76
2022/04/29 10:06:49;;;;;;;;;;;;;;;;;;5001402;28;20275;-76
2022/04/29 10:09:15;;;;;;;;;;;;;;;;;;4985402;28;19914;-76
2022/04/29 10:11:42;;;;;;;;;;;;;;;;;;5001184;28;20422;-76
2022/04/29 10:14:08;;;;;;;;;;;;;;;;;;5001245;28;19925;-76
2022/04/29 10:16:33;;;;;;;;;;;;;;;;;;5018270;28;19917;-76
2022/04/29 10:21:50;;;;;;;;;;;;;;;;;;5019620;28;19952;-82
2022/04/29 10:24:15;;;;;;;;;;;;;;;;;;4997796;28;20266;-82
2022/04/29 10:26:40;;;;;;;;;;;;;;;;;;5001061;28;20016;-82
2022/04/29 10:29:06;;;;;;;;;;;;;;;;;;5001495;28;19927;-82
2022/04/29 10:31:31;;;;;;;;;;;;;;;;;;4985251;28;20331;-82
2022/04/29 10:34:15;;;;;;;;;;;;;;;;;;4984873;28;19925;-82
2022/04/29 10:36:45;;;;;;;;;;;;;;;;;;5001074;28;19914;-82
2022/04/29 10:39:13;;;;;;;;;;;;;;;;;;4999149;28;19921;-83
2022/04/29 10:41:38;;;;;;;;;;;;;;;;;;5001142;28;20008;-81
2022/04/29 10:44:04;;;;;;;;;;;;;;;;;;5000786;28;19945;-82
2022/04/29 10:46:30;;;;;;;;;;;;;;;;;;4984788;28;19928;-81
2022/04/29 10:48:55;;;;;;;;;;;;;;;;;;5000161;28;20012;-82
2022/04/29 10:51:26;;;;;;;;;;;;;;;;;;5000786;28;20235;-82
2022/04/29 10:53:56;;;;;;;;;;;;;;;;;;5000272;28;19940;-83
2022/04/29 10:56:30;;;;;;;;;;;;;;;;;;5018942;28;19921;-85
2022/04/29 10:59:15;;;;;;;;;;;;;;;;;;5015554;28;19921;-86
2022/04/29 11:01:41;;;;;;;;;;;;;;;;;;5000123;28;20021;-86
2022/04/29 11:04:12;;;;;;;;;;;;;;;;;;5000690;28;19961;-85
2022/04/29 11:06:45;;;;;;;;;;;;;;;;;;5016560;28;19967;-84
2022/04/29 11:12:41;;;;;;;;;;;;;;;;;;5017436;28;20345;-83
2022/04/29 11:15:12;;;;;;;;;;;;;;;;;;5018067;28;19913;-84
2022/04/29 11:17:46;;;;;;;;;;;;;;;;;;4993321;28;19921;-82
2022/04/29 11:20:31;;;;;;;;;;;;;;;;;;5015061;28;20021;-85
2022/04/29 11:29:01;;;;;;;;;;;;;;;;;;5019164;28;19920;-83
2022/04/29 11:34:23;;;;;;;;;;;;;;;;;;5002754;28;20028;-84
2022/04/29 11:36:55;;;;;;;;;;;;;;;;;;5002037;28;20000;-84
2022/04/29 11:39:23;;;;;;;;;;;;;;;;;;5016177;28;19964;-82
2022/04/29 11:41:56;;;;;;;;;;;;;;;;;;5017961;28;19918;-85
2022/04/29 11:44:38;;;;;;;;;;;;;;;;;;5000179;28;19913;-83
2022/04/29 11:47:06;;;;;;;;;;;;;;;;;;5011428;28;19944;-85
2022/04/29 11:49:32;;;;;;;;;;;;;;;;;;5018577;28;19917;-81
2022/04/29 11:52:16;;;;;;;;;;;;;;;;;;5023584;28;19918;-80
2022/04/29 11:54:56;;;;;;;;;;;;;;;;;;5020480;28;20293;-84
2022/04/29 11:57:24;;;;;;;;;;;;;;;;;;5002001;28;19913;-85
2022/04/29 11:59:49;;;;;;;;;;;;;;;;;;5001422;28;20005;-83
2022/04/29 12:02:19;;;;;;;;;;;;;;;;;;5000799;28;19960;-84
2022/04/29 12:04:58;;;;;;;;;;;;;;;;;;5019305;28;19921;-85
2022/04/29 12:07:23;;;;;;;;;;;;;;;;;;5018299;28;19929;-83
2022/04/29 12:09:49;;;;;;;;;;;;;;;;;;5006235;28;19918;-83
2022/04/29 12:12:24;;;;;;;;;;;;;;;;;;5000373;28;20007;-82
2022/04/29 12:14:52;;;;;;;;;;;;;;;;;;5005067;28;20347;-84
2022/04/29 12:17:29;;;;;;;;;;;;;;;;;;5017308;28;19917;-83
2022/04/29 12:20:16;;;;;;;;;;;;;;;;;;5002877;28;19949;-83
2022/04/29 12:22:50;;;;;;;;;;;;;;;;;;5019313;28;19929;-85
2022/04/29 12:25:18;;;;;;;;;;;;;;;;;;4999246;28;19948;-86
2022/04/29 12:27:43;;;;;;;;;;;;;;;;;;5016374;28;19952;-86
2022/04/29 12:36:14;;;;;;;;;;;;;;;;;;5015812;28;20031;-86
2022/04/29 12:38:51;;;;;;;;;;;;;;;;;;5015009;28;19987;-84
2022/04/29 12:41:23;;;;;;;;;;;;;;;;;;5021889;28;19952;-85
2022/04/29 12:43:49;;;;;;;;;;;;;;;;;;4995850;28;20036;-84
2022/04/29 12:46:15;;;;;;;;;;;;;;;;;;4997543;28;20024;-85
2022/04/29 12:48:47;;;;;;;;;;;;;;;;;;5014845;28;19918;-85
2022/04/29 12:51:44;;;;;;;;;;;;;;;;;;4997933;28;19921;-85
2022/04/29 12:54:22;;;;;;;;;;;;;;;;;;4999099;28;19917;-84
2022/04/29 12:56:49;;;;;;;;;;;;;;;;;;5014882;28;19921;-81
2022/04/29 12:59:20;;;;;;;;;;;;;;;;;;4981604;28;19952;-83
2022/04/29 13:01:45;;;;;;;;;;;;;;;;;;5014303;28;20258;-84
2022/04/29 13:04:11;;;;;;;;;;;;;;;;;;4996361;28;20373;-84
2022/04/29 13:06:41;;;;;;;;;;;;;;;;;;5014301;28;19932;-84
2022/04/29 13:09:08;;;;;;;;;;;;;;;;;;5014797;28;19921;-83
2022/04/29 13:11:34;;;;;;;;;;;;;;;;;;5015414;28;20031;-84
2022/04/29 13:14:01;;;;;;;;;;;;;;;;;;5016153;28;20330;-86
2022/04/29 13:16:26;;;;;;;;;;;;;;;;;;4999859;28;20248;-86
2022/04/29 13:18:53;;;;;;;;;;;;;;;;;;4981611;28;19928;-82
2022/04/29 13:21:18;;;;;;;;;;;;;;;;;;4998383;28;19967;-84
2022/04/29 13:23:45;;;;;;;;;;;;;;;;;;4980808;28;19921;-83
2022/04/29 13:26:13;;;;;;;;;;;;;;;;;;4990963;28;20401;-82
2022/04/29 13:28:38;;;;;;;;;;;;;;;;;;5015218;28;20342;-82
2022/04/29 13:31:06;;;;;;;;;;;;;;;;;;4997704;28;19917;-84
2022/04/29 13:33:32;;;;;;;;;;;;;;;;;;5016311;28;19925;-86
2022/04/29 13:35:57;;;;;;;;;;;;;;;;;;4997453;28;19968;-84
2022/04/29 13:38:23;;;;;;;;;;;;;;;;;;5015272;28;19956;-81
2022/04/29 13:41:04;;;;;;;;;;;;;;;;;;4998990;28;19917;-85
2022/04/29 13:43:36;;;;;;;;;;;;;;;;;;5000285;28;19917;-86
2022/04/29 13:46:07;;;;;;;;;;;;;;;;;;5016405;28;19951;-87
2022/04/29 13:48:34;;;;;;;;;;;;;;;;;;5015986;28;19918;-84
2022/04/29 13:51:00;;;;;;;;;;;;;;;;;;5015773;28;19917;-85
2022/04/29 13:53:27;;;;;;;;;;;;;;;;;;5015337;28;19931;-84
2022/04/29 13:55:53;;;;;;;;;;;;;;;;;;5015552;28;20330;-85
2022/04/29 13:58:19;;;;;;;;;;;;;;;;;;5014604;28;19963;-84
2022/04/29 14:00:47;;;;;;;;;;;;;;;;;;5015733;28;19960;-84
2022/04/29 14:03:13;;;;;;;;;;;;;;;;;;5015131;28;19928;-83
2022/04/29 14:05:38;;;;;;;;;;;;;;;;;;5014853;28;19917;-84
2022/04/29 14:08:06;;;;;;;;;;;;;;;;;;5015297;28;20024;-83
2022/04/29 14:10:32;;;;;;;;;;;;;;;;;;4998788;28;19914;-80
2022/04/29 14:12:58;;;;;;;;;;;;;;;;;;4998156;28;20028;-83
2022/04/29 14:15:23;;;;;;;;;;;;;;;;;;4998166;28;19945;-86
2022/04/29 14:17:49;;;;;;;;;;;;;;;;;;5016613;28;19917;-84
2022/04/29 14:20:14;;;;;;;;;;;;;;;;;;5017171;28;20454;-83
2022/04/29 14:22:41;;;;;;;;;;;;;;;;;;5021140;28;19914;-83
2022/04/29 14:25:08;;;;;;;;;;;;;;;;;;5010472;28;20355;-82
2022/04/29 14:27:40;;;;;;;;;;;;;;;;;;5013787;28;19936;-82
2022/04/29 14:30:08;;;;;;;;;;;;;;;;;;4997448;28;20394;-80
2022/04/29 14:32:34;;;;;;;;;;;;;;;;;;4981159;28;19914;-83
2022/04/29 14:35:09;;;;;;;;;;;;;;;;;;5014697;28;19918;-81
2022/04/29 14:37:35;;;;;;;;;;;;;;;;;;5000618;28;19917;-82
2022/04/29 14:40:03;;;;;;;;;;;;;;;;;;5017672;28;20000;-82
2022/04/29 14:42:28;;;;;;;;;;;;;;;;;;5015317;28;20326;-85
2022/04/29 14:44:54;;;;;;;;;;;;;;;;;;5015823;28;19918;-81
2022/04/29 14:47:21;;;;;;;;;;;;;;;;;;5016496;28;19913;-80
2022/04/29 14:49:47;;;;;;;;;;;;;;;;;;5014518;28;20294;-79
2022/04/29 14:52:12;;;;;;;;;;;;;;;;;;5002450;28;19913;-81
2022/04/29 14:54:39;;;;;;;;;;;;;;;;;;4998073;28;20365;-82
2022/04/29 14:57:04;;;;;;;;;;;;;;;;;;5017318;28;19914;-80
2022/04/29 14:59:30;;;;;;;;;;;;;;;;;;4999515;28;19924;-81
2022/04/29 15:01:57;;;;;;;;;;;;;;;;;;5017041;28;19928;-83
2022/04/29 15:04:22;;;;;;;;;;;;;;;;;;5016326;28;19913;-81
2022/04/29 15:06:48;;;;;;;;;;;;;;;;;;5016899;28;19922;-81
2022/04/29 15:17:25;;;;;;;;;;;;;;;;;;5017437;28;20005;-82
2022/04/29 15:19:51;;;;;;;;;;;;;;;;;;5000170;28;20263;-82
2022/04/29 15:22:17;;;;;;;;;;;;;;;;;;5000045;28;19913;-81
2022/04/29 15:24:42;;;;;;;;;;;;;;;;;;5017082;28;19913;-82
2022/04/29 15:27:07;;;;;;;;;;;;;;;;;;4983598;28;19929;-81
2022/04/29 15:29:33;;;;;;;;;;;;;;;;;;5017126;28;20402;-81
2022/04/29 15:31:58;;;;;;;;;;;;;;;;;;5017076;28;19913;-81
2022/04/29 15:34:24;;;;;;;;;;;;;;;;;;4999137;28;19914;-82
2022/04/29 15:36:49;;;;;;;;;;;;;;;;;;4997767;28;20565;-81
2022/04/29 15:39:15;;;;;;;;;;;;;;;;;;5015991;28;19960;-81
2022/04/29 15:41:43;;;;;;;;;;;;;;;;;;5000067;28;20235;-81
2022/04/29 15:44:11;;;;;;;;;;;;;;;;;;5017202;28;19914;-81
2022/04/29 15:46:36;;;;;;;;;;;;;;;;;;5015456;28;19925;-83
2022/04/29 15:49:02;;;;;;;;;;;;;;;;;;5019032;28;19959;-83
2022/04/29 15:51:27;;;;;;;;;;;;;;;;;;5004860;28;19921;-87
2022/04/29 15:53:53;;;;;;;;;;;;;;;;;;5022067;28;19918;-80
2022/04/29 15:56:22;;;;;;;;;;;;;;;;;;5017880;28;19921;-83
2022/04/29 15:58:48;;;;;;;;;;;;;;;;;;5015964;28;19921;-81
2022/04/29 16:01:14;;;;;;;;;;;;;;;;;;5013595;28;19925;-82
2022/04/29 16:03:49;;;;;;;;;;;;;;;;;;5015333;28;19925;-79
2022/04/29 16:06:20;;;;;;;;;;;;;;;;;;5016322;28;19948;-80
2022/04/29 16:08:46;;;;;;;;;;;;;;;;;;4998198;28;20413;-82
2022/04/29 16:11:11;;;;;;;;;;;;;;;;;;5016104;28;20004;-77
2022/04/29 16:13:37;;;;;;;;;;;;;;;;;;5013876;28;19968;-79
2022/04/29 16:16:09;;;;;;;;;;;;;;;;;;5012865;28;19917;-81
2022/04/29 16:21:24;;;;;;;;;;;;;;;;;;5015242;28;20266;-78
2022/04/29 16:26:33;;;;;;;;;;;;;;;;;;5001193;28;19928;-79
2022/04/29 16:28:59;;;;;;;;;;;;;;;;;;5013500;28;19917;-90
2022/04/29 16:31:24;;;;;;;;;;;;;;;;;;5015646;28;19925;-83
2022/04/29 16:33:52;;;;;;;;;;;;;;;;;;4994174;28;19928;-82
2022/04/29 16:36:18;;;;;;;;;;;;;;;;;;4997051;28;19928;-84
2022/04/29 16:38:44;;;;;;;;;;;;;;;;;;4993706;28;20000;-82
2022/04/29 16:41:10;;;;;;;;;;;;;;;;;;4996589;28;19967;-82
2022/04/29 16:43:35;;;;;;;;;;;;;;;;;;4996836;28;19922;-81
2022/04/29 16:46:06;;;;;;;;;;;;;;;;;;4996196;28;19921;-82
2022/04/29 16:48:52;;;;;;;;;;;;;;;;;;4978793;28;20212;-84
2022/04/29 16:51:18;;;;;;;;;;;;;;;;;;4996186;28;19922;-81
2022/04/29 16:53:43;;;;;;;;;;;;;;;;;;4993764;28;20326;-86
2022/04/29 16:56:09;;;;;;;;;;;;;;;;;;4990935;28;19918;-81
2022/04/29 16:58:45;;;;;;;;;;;;;;;;;;4974679;28;19921;-82
2022/04/29 17:01:17;;;;;;;;;;;;;;;;;;4993068;28;19964;-84
2022/04/29 17:03:47;;;;;;;;;;;;;;;;;;4990713;28;19929;-80
2022/04/29 17:06:12;;;;;;;;;;;;;;;;;;4991989;28;19937;-81
2022/04/29 17:08:37;;;;;;;;;;;;;;;;;;4996175;28;20052;-82
2022/04/29 17:11:03;;;;;;;;;;;;;;;;;;4996002;28;19971;-80
2022/04/29 17:13:28;;;;;;;;;;;;;;;;;;4996623;28;19916;-80
2022/04/29 17:15:54;;;;;;;;;;;;;;;;;;4998422;28;19949;-81
2022/04/29 17:18:22;;;;;;;;;;;;;;;;;;4996852;28;19928;-82
2022/04/29 17:20:52;;;;;;;;;;;;;;;;;;4977330;28;20509;-80
2022/04/29 17:23:23;;;;;;;;;;;;;;;;;;4981474;28;19918;-85
2022/04/29 17:25:49;;;;;;;;;;;;;;;;;;4998649;28;19979;-88
2022/04/29 17:28:18;;;;;;;;;;;;;;;;;;4996400;28;19918;-85
2022/04/29 17:30:43;;;;;;;;;;;;;;;;;;4997210;28;19967;-84
2022/04/29 17:33:11;;;;;;;;;;;;;;;;;;4984847;28;19972;-84
2022/04/29 17:35:39;;;;;;;;;;;;;;;;;;4996522;28;19921;-81
2022/04/29 17:38:05;;;;;;;;;;;;;;;;;;5006854;28;19972;-81
2022/04/29 17:43:38;;;;;;;;;;;;;;;;;;5010064;28;19983;-79
2022/04/29 17:46:04;;;;;;;;;;;;;;;;;;4993413;28;20229;-81
2022/04/29 17:48:31;;;;;;;;;;;;;;;;;;4994390;28;19977;-82
2022/04/29 17:50:57;;;;;;;;;;;;;;;;;;4993765;28;19917;-81
2022/04/29 17:53:22;;;;;;;;;;;;;;;;;;4994392;28;19924;-80
2022/04/29 17:56:00;;;;;;;;;;;;;;;;;;5012507;28;19921;-82
2022/04/29 17:58:25;;;;;;;;;;;;;;;;;;4995956;28;19948;-82
2022/04/29 18:00:51;;;;;;;;;;;;;;;;;;4990822;28;19968;-83
2022/04/29 18:03:17;;;;;;;;;;;;;;;;;;5012328;28;19925;-79
2022/04/29 18:05:45;;;;;;;;;;;;;;;;;;4991691;28;19944;-84
2022/04/29 18:08:10;;;;;;;;;;;;;;;;;;5014250;28;19929;-84
2022/04/29 18:10:35;;;;;;;;;;;;;;;;;;4998980;28;19922;-88
2022/04/29 18:13:03;;;;;;;;;;;;;;;;;;5000406;28;19928;-88
2022/04/29 18:15:28;;;;;;;;;;;;;;;;;;4999244;28;20339;-89
2022/04/29 18:17:54;;;;;;;;;;;;;;;;;;5001460;28;19940;-85
2022/04/29 18:20:19;;;;;;;;;;;;;;;;;;4997845;28;20374;-82
2022/04/29 18:22:49;;;;;;;;;;;;;;;;;;4995561;28;19962;-82
2022/04/29 18:25:15;;;;;;;;;;;;;;;;;;4997456;28;19921;-84
2022/04/29 18:27:40;;;;;;;;;;;;;;;;;;5014852;28;20239;-84
2022/04/29 18:30:06;;;;;;;;;;;;;;;;;;4996925;28;19922;-79
2022/04/29 18:32:31;;;;;;;;;;;;;;;;;;4979526;28;19972;-79
2022/04/29 18:34:59;;;;;;;;;;;;;;;;;;5015171;28;19948;-78
2022/04/29 18:37:24;;;;;;;;;;;;;;;;;;4995065;28;19992;-78
2022/04/29 18:39:49;;;;;;;;;;;;;;;;;;4981924;28;20362;-79
2022/04/29 18:42:15;;;;;;;;;;;;;;;;;;4991679;28;19975;-78
2022/04/29 18:44:40;;;;;;;;;;;;;;;;;;5015893;28;19917;-78
2022/04/29 18:47:05;;;;;;;;;;;;;;;;;;5014684;28;19956;-79
2022/04/29 18:49:33;;;;;;;;;;;;;;;;;;5017356;28;19962;-78